createdAt,value
2022-08-11T00:01:59.127Z,2.97
2022-08-11T00:04:27.787Z,3.65
2022-08-11T00:06:55.945Z,3.50
2022-08-11T00:09:33.012Z,3.67
2022-08-11T00:12:13.843Z,2.90
2022-08-11T00:14:41.983Z,2.85
2022-08-11T00:17:11.402Z,3.05
2022-08-11T00:20:11.884Z,3.30
2022-08-11T00:22:30.904Z,3.53
2022-08-11T00:25:02.667Z,3.42
2022-08-11T00:27:34.940Z,3.88
2022-08-11T00:30:03.329Z,3.35
2022-08-11T00:32:31.423Z,3.85
2022-08-11T00:35:54.254Z,4.65
2022-08-11T00:37:49.680Z,3.60
2022-08-11T00:40:24.311Z,2.67
2022-08-11T00:42:59.918Z,3.15
2022-08-11T00:45:29.088Z,3.05
2022-08-11T00:48:04.136Z,4.57
2022-08-11T00:50:39.565Z,3.55
2022-08-11T00:53:33.395Z,3.50
2022-08-11T00:56:19.423Z,3.35
2022-08-11T00:59:36.078Z,4.00
2022-08-11T01:02:18.649Z,4.20
2022-08-11T01:05:07.968Z,3.05
2022-08-11T01:12:05.409Z,6.32
2022-08-11T01:15:21.513Z,3.28
2022-08-11T01:18:18.892Z,2.47
2022-08-11T01:21:26.440Z,4.28
2022-08-11T01:24:32.836Z,4.55
2022-08-11T01:27:19.210Z,2.60
2022-08-11T01:30:05.005Z,4.68
2022-08-11T01:33:10.109Z,2.58
2022-08-11T01:36:23.284Z,3.97
2022-08-11T01:39:18.346Z,3.40
2022-08-11T01:42:13.658Z,4.50
2022-08-11T01:45:07.021Z,5.40
2022-08-11T01:47:54.788Z,2.50
2022-08-11T01:50:34.773Z,3.42
2022-08-11T01:53:06.337Z,3.55
2022-08-11T01:55:41.664Z,3.08
2022-08-11T01:58:13.507Z,2.78
2022-08-11T02:00:50.132Z,4.55
2022-08-11T02:03:21.664Z,3.13
2022-08-11T02:06:01.355Z,4.00
2022-08-11T02:08:44.868Z,3.10
2022-08-11T02:11:34.452Z,3.22
2022-08-11T02:14:13.032Z,3.90
2022-08-11T02:17:00.418Z,2.88
2022-08-11T02:19:52.911Z,4.05
2022-08-11T02:22:58.357Z,2.80
2022-08-11T02:25:30.711Z,4.55
2022-08-11T02:28:03.656Z,3.70
2022-08-11T02:30:34.239Z,3.70
2022-08-11T02:33:23.605Z,3.28
2022-08-11T02:35:58.731Z,4.40
2022-08-11T02:38:29.457Z,5.05
2022-08-11T02:41:02.491Z,5.00
2022-08-11T02:43:40.947Z,4.80
2022-08-11T02:46:21.557Z,4.05
2022-08-11T02:49:12.327Z,2.75
2022-08-11T02:51:43.832Z,3.58
2022-08-11T02:54:16.749Z,4.30
2022-08-11T02:56:52.267Z,4.88
2022-08-11T02:59:43.903Z,3.60
2022-08-11T03:02:15.800Z,3.22
2022-08-11T03:04:56.691Z,3.55
2022-08-11T03:07:29.038Z,2.55
2022-08-11T03:10:01.655Z,3.53
2022-08-11T03:12:53.569Z,3.13
2022-08-11T03:15:44.594Z,3.42
2022-08-11T03:18:19.275Z,3.85
2022-08-11T03:20:50.401Z,2.67
2022-08-11T03:23:24.394Z,2.65
2022-08-11T03:25:55.660Z,3.45
2022-08-11T03:28:29.623Z,3.50
2022-08-11T03:31:08.319Z,4.13
2022-08-11T03:34:00.520Z,4.57
2022-08-11T03:37:17.515Z,3.63
2022-08-11T03:39:56.575Z,4.38
2022-08-11T03:42:28.193Z,5.40
2022-08-11T03:45:08.497Z,3.55
2022-08-11T03:47:54.941Z,4.53
2022-08-11T03:51:02.973Z,5.70
2022-08-11T03:53:51.412Z,6.20
2022-08-11T03:56:51.761Z,3.38
2022-08-11T03:59:51.201Z,3.13
2022-08-11T04:02:35.794Z,3.17
2022-08-11T04:05:51.619Z,4.95
2022-08-11T04:08:51.355Z,7.75
2022-08-11T04:11:33.335Z,10.38
2022-08-11T04:14:52.993Z,9.43
2022-08-11T04:17:54.638Z,5.97
2022-08-11T04:20:31.155Z,5.35
2022-08-11T04:24:35.529Z,4.68
2022-08-11T04:26:34.351Z,4.25
2022-08-11T04:29:09.501Z,7.32
2022-08-11T04:31:51.199Z,4.53
2022-08-11T04:34:43.205Z,7.45
2022-08-11T04:37:34.407Z,8.00
2022-08-11T04:40:46.340Z,4.70
2022-08-11T04:44:02.385Z,8.77
2022-08-11T04:47:11.804Z,7.70
2022-08-11T04:50:08.371Z,5.97
2022-08-11T04:53:20.570Z,8.18
2022-08-11T04:56:25.690Z,19.60
2022-08-11T04:59:41.641Z,20.55
2022-08-11T05:02:37.834Z,15.40
2022-08-11T05:05:34.846Z,10.23
2022-08-11T05:08:38.408Z,9.07
2022-08-11T05:11:21.534Z,8.52
2022-08-11T05:14:07.573Z,5.85
2022-08-11T05:17:00.494Z,5.05
2022-08-11T05:19:45.877Z,9.30
2022-08-11T05:22:31.658Z,11.85
2022-08-11T05:26:08.823Z,12.27
2022-08-11T05:28:28.381Z,8.25
2022-08-11T05:31:14.272Z,8.57
2022-08-11T05:34:05.960Z,9.13
2022-08-11T05:36:39.429Z,7.75
2022-08-11T05:39:36.594Z,11.60
2022-08-11T05:42:29.830Z,8.25
2022-08-11T05:45:18.209Z,10.40
2022-08-11T05:48:07.187Z,17.27
2022-08-11T05:50:53.940Z,18.60
2022-08-11T05:53:45.734Z,14.48
2022-08-11T05:56:20.695Z,16.38
2022-08-11T05:58:50.644Z,10.50
2022-08-11T06:01:23.304Z,21.08
2022-08-11T06:04:09.802Z,38.28
2022-08-11T06:06:45.294Z,45.95
2022-08-11T06:09:15.549Z,34.90
2022-08-11T06:11:45.137Z,24.75
2022-08-11T06:14:13.600Z,20.60
2022-08-11T06:16:42.090Z,19.58
2022-08-11T06:19:10.531Z,12.35
2022-08-11T06:21:44.772Z,11.70
2022-08-11T06:24:13.683Z,10.10
2022-08-11T06:27:01.527Z,9.63
2022-08-11T06:29:38.071Z,8.98
2022-08-11T06:32:15.659Z,7.07
2022-08-11T06:34:57.077Z,10.52
2022-08-11T06:37:31.215Z,5.60
2022-08-11T06:40:06.673Z,10.68
2022-08-11T06:42:48.202Z,22.98
2022-08-11T06:45:25.175Z,21.30
2022-08-11T06:47:53.506Z,15.68
2022-08-11T06:50:40.181Z,16.35
2022-08-11T06:53:12.181Z,14.65
2022-08-11T06:55:59.102Z,11.15
2022-08-11T06:58:47.174Z,10.05
2022-08-11T07:01:18.222Z,8.35
2022-08-11T07:03:47.873Z,11.95
2022-08-11T07:06:39.902Z,9.10
2022-08-11T07:09:52.160Z,11.32
2022-08-11T07:12:56.151Z,7.43
2022-08-11T07:16:10.820Z,9.40
2022-08-11T07:18:51.136Z,10.25
2022-08-11T07:22:01.476Z,6.93
2022-08-11T07:25:01.683Z,7.68
2022-08-11T07:27:55.574Z,10.00
2022-08-11T07:30:24.210Z,6.68
2022-08-11T07:32:53.212Z,5.95
2022-08-11T07:35:23.241Z,5.45
2022-08-11T07:38:01.713Z,5.28
2022-08-11T07:40:32.088Z,4.50
2022-08-11T07:43:00.859Z,4.75
2022-08-11T07:45:46.704Z,4.28
2022-08-11T07:48:32.525Z,6.20
2022-08-11T07:51:18.382Z,6.25
2022-08-11T07:53:58.712Z,12.57
2022-08-11T07:57:07.378Z,12.75
2022-08-11T08:00:00.209Z,9.88
2022-08-11T08:02:57.485Z,7.82
2022-08-11T08:05:42.777Z,6.32
2022-08-11T08:08:28.511Z,8.40
2022-08-11T08:11:14.260Z,5.43
2022-08-11T08:14:01.400Z,6.53
2022-08-11T08:16:47.941Z,9.43
2022-08-11T08:19:16.717Z,14.30
2022-08-11T08:21:45.341Z,14.20
2022-08-11T08:24:13.773Z,14.40
2022-08-11T08:27:00.212Z,13.43
2022-08-11T08:29:50.323Z,13.50
2022-08-11T08:32:18.744Z,11.82
2022-08-11T08:34:47.207Z,10.05
2022-08-11T08:37:46.282Z,11.57
2022-08-11T08:40:04.317Z,10.57
2022-08-11T08:42:33.347Z,9.07
2022-08-11T08:45:05.329Z,8.00
2022-08-11T08:47:42.052Z,8.88
2022-08-11T08:50:16.641Z,7.80
2022-08-11T08:52:49.233Z,8.00
2022-08-11T08:55:19.338Z,9.18
2022-08-11T08:57:50.184Z,12.07
2022-08-11T09:00:23.494Z,13.80
2022-08-11T09:02:51.930Z,16.27
2022-08-11T09:05:20.231Z,15.68
2022-08-11T09:07:48.681Z,14.32
2022-08-11T09:10:17.490Z,10.50
2022-08-11T09:12:45.604Z,10.95
2022-08-11T09:15:14.999Z,11.50
2022-08-11T09:17:49.997Z,10.10
2022-08-11T09:20:20.277Z,10.60
2022-08-11T09:26:14.067Z,8.77
2022-08-11T09:28:43.950Z,10.07
2022-08-11T09:31:13.507Z,10.57
2022-08-11T09:33:43.957Z,9.82
2022-08-11T09:36:31.309Z,22.52
2022-08-11T09:39:17.132Z,21.73
2022-08-11T09:42:00.565Z,22.05
2022-08-11T09:44:48.953Z,22.95
2022-08-11T09:47:24.473Z,25.15
2022-08-11T09:50:00.634Z,22.48
2022-08-11T09:52:30.930Z,22.40
2022-08-11T09:54:59.254Z,20.73
2022-08-11T09:57:44.696Z,21.00
2022-08-11T10:00:15.261Z,19.73
2022-08-11T10:02:44.718Z,19.70
2022-08-11T10:05:33.551Z,21.30
2022-08-11T10:08:01.712Z,21.48
2022-08-11T10:10:29.835Z,19.73
2022-08-11T10:13:01.699Z,26.15
2022-08-11T10:15:34.564Z,25.15
2022-08-11T10:18:22.689Z,22.92
2022-08-11T10:20:54.260Z,22.38
2022-08-11T10:24:01.188Z,24.13
2022-08-11T10:26:47.154Z,21.65
2022-08-11T10:29:35.905Z,24.35
2022-08-11T10:32:25.631Z,22.17
2022-08-11T10:35:00.504Z,21.52
2022-08-11T10:38:06.911Z,21.45
2022-08-11T10:40:25.346Z,19.85
2022-08-11T10:43:03.654Z,20.67
2022-08-11T10:45:49.145Z,21.73
2022-08-11T10:48:17.280Z,20.75
2022-08-11T10:51:04.794Z,19.30
2022-08-11T10:53:51.882Z,20.33
2022-08-11T10:56:37.138Z,18.02
2022-08-11T10:59:05.426Z,19.70
2022-08-11T11:01:35.295Z,17.17
2022-08-11T11:04:07.814Z,18.67
2022-08-11T11:06:44.758Z,17.95
2022-08-11T11:09:16.114Z,16.73
2022-08-11T11:12:03.757Z,17.27
2022-08-11T11:14:56.470Z,19.33
2022-08-11T11:17:46.772Z,17.65
2022-08-11T11:20:36.545Z,16.17
2022-08-11T11:23:09.692Z,17.10
2022-08-11T11:26:06.392Z,16.30
2022-08-11T11:28:59.211Z,16.27
2022-08-11T11:31:33.432Z,15.60
2022-08-11T11:34:13.232Z,16.83
2022-08-11T11:36:45.574Z,16.42
2022-08-11T11:39:13.866Z,15.40
2022-08-11T11:41:43.434Z,15.80
2022-08-11T11:44:12.863Z,16.23
2022-08-11T11:46:41.462Z,14.82
2022-08-11T11:49:16.616Z,15.35
2022-08-11T11:51:45.889Z,14.40
2022-08-11T11:54:18.235Z,14.43
2022-08-11T11:56:47.775Z,14.98
2022-08-11T11:59:33.395Z,13.80
2022-08-11T12:02:01.512Z,14.23
2022-08-11T12:04:42.959Z,14.40
2022-08-11T12:07:28.495Z,13.07
2022-08-11T12:09:56.738Z,12.80
2022-08-11T12:12:43.708Z,13.27
2022-08-11T12:15:11.997Z,12.95
2022-08-11T12:17:40.430Z,12.32
2022-08-11T12:20:31.946Z,12.23
2022-08-11T12:23:15.217Z,12.18
2022-08-11T12:26:25.317Z,11.85
2022-08-11T12:28:51.014Z,13.43
2022-08-11T12:31:22.191Z,11.60
2022-08-11T12:33:50.441Z,11.82
2022-08-11T12:36:18.538Z,17.35
2022-08-11T12:38:51.267Z,11.10
2022-08-11T12:41:37.985Z,12.98
2022-08-11T12:44:25.617Z,12.57
2022-08-11T12:46:53.859Z,11.65
2022-08-11T12:49:44.715Z,15.52
2022-08-11T12:52:17.586Z,14.52
2022-08-11T12:54:52.784Z,10.63
2022-08-11T12:57:42.821Z,11.93
2022-08-11T13:00:30.527Z,10.95
2022-08-11T13:03:16.494Z,13.10
2022-08-11T13:05:45.515Z,12.32
2022-08-11T13:08:15.430Z,14.10
2022-08-11T13:11:01.718Z,11.77
2022-08-11T13:13:54.739Z,11.32
2022-08-11T13:16:20.752Z,13.50
2022-08-11T13:18:48.955Z,13.73
2022-08-11T13:21:20.685Z,13.95
2022-08-11T13:23:59.423Z,13.13
2022-08-11T13:26:47.547Z,13.95
2022-08-11T13:29:22.752Z,13.48
2022-08-11T13:31:52.292Z,12.00
2022-08-11T13:34:20.737Z,14.13
2022-08-11T13:36:50.514Z,12.40
2022-08-11T13:39:18.651Z,13.55
2022-08-11T13:41:47.952Z,13.43
2022-08-11T13:44:23.217Z,12.38
2022-08-11T13:46:56.397Z,12.85
2022-08-11T13:49:24.661Z,14.80
2022-08-11T13:51:52.774Z,16.77
2022-08-11T13:54:22.413Z,16.85
2022-08-11T13:56:54.149Z,14.95
2022-08-11T13:59:28.184Z,15.13
2022-08-11T14:02:22.610Z,13.25
2022-08-11T14:04:54.465Z,15.75
2022-08-11T14:07:23.478Z,17.42
2022-08-11T14:09:56.857Z,16.90
2022-08-11T14:12:43.157Z,15.27
2022-08-11T14:15:20.090Z,12.95
2022-08-11T14:17:52.619Z,14.18
2022-08-11T14:20:38.368Z,16.30
2022-08-11T14:23:08.095Z,19.25
2022-08-11T14:26:00.156Z,14.90
2022-08-11T14:28:41.760Z,15.70
2022-08-11T14:31:12.074Z,17.88
2022-08-11T14:34:00.377Z,17.88
2022-08-11T14:36:35.117Z,16.15
2022-08-11T14:39:08.894Z,18.13
2022-08-11T14:42:10.862Z,16.08
2022-08-11T14:45:00.152Z,14.60
2022-08-11T14:47:28.460Z,14.65
2022-08-11T14:50:10.199Z,13.55
2022-08-11T14:52:41.041Z,12.75
2022-08-11T14:55:27.026Z,10.18
2022-08-11T14:57:57.124Z,10.07
2022-08-11T15:00:25.507Z,10.98
2022-08-11T15:03:11.241Z,9.07
2022-08-11T15:05:52.395Z,11.15
2022-08-11T15:08:42.622Z,8.57
2022-08-11T15:11:32.438Z,7.93
2022-08-11T15:14:00.753Z,7.78
2022-08-11T15:16:46.460Z,8.65
2022-08-11T15:19:15.122Z,10.15
2022-08-11T15:22:02.423Z,7.53
2022-08-11T15:24:30.889Z,8.55
2022-08-11T15:27:16.880Z,8.25
2022-08-11T15:30:02.221Z,8.23
2022-08-11T15:32:47.765Z,8.02
2022-08-11T15:35:38.787Z,8.32
2022-08-11T15:38:09.409Z,7.60
2022-08-11T15:40:56.572Z,7.45
2022-08-11T15:43:44.754Z,7.43
2022-08-11T15:46:14.674Z,8.88
2022-08-11T15:48:44.614Z,6.65
2022-08-11T15:51:14.311Z,6.55
2022-08-11T15:53:57.138Z,9.80
2022-08-11T15:56:25.966Z,11.00
2022-08-11T15:59:41.931Z,9.25
2022-08-11T16:02:26.154Z,8.85
2022-08-11T16:04:54.454Z,8.88
2022-08-11T16:07:27.002Z,7.47
2022-08-11T16:10:00.201Z,8.38
2022-08-11T16:12:30.416Z,6.47
2022-08-11T16:15:20.192Z,7.43
2022-08-11T16:17:51.371Z,7.45
2022-08-11T16:20:22.246Z,5.60
2022-08-11T16:22:57.211Z,5.75
2022-08-11T16:27:02.912Z,6.95
2022-08-11T16:28:23.830Z,6.20
2022-08-11T16:30:52.019Z,6.60
2022-08-11T16:33:50.707Z,5.30
2022-08-11T16:36:26.641Z,6.78
2022-08-11T16:38:55.072Z,6.35
2022-08-11T16:41:39.150Z,5.22
2022-08-11T16:44:32.719Z,4.03
2022-08-11T16:47:06.448Z,6.13
2022-08-11T16:49:36.155Z,3.72
2022-08-11T16:52:05.529Z,3.83
2022-08-11T16:54:34.179Z,6.78
2022-08-11T16:57:18.720Z,5.95
2022-08-11T16:59:48.415Z,5.40
2022-08-11T17:02:40.317Z,7.07
2022-08-11T17:05:28.494Z,6.30
2022-08-11T17:08:13.561Z,5.78
2022-08-11T17:11:04.135Z,4.75
2022-08-11T17:13:36.600Z,5.80
2022-08-11T17:16:09.321Z,3.83
2022-08-11T17:18:43.183Z,3.75
2022-08-11T17:21:13.892Z,3.75
2022-08-11T17:23:48.122Z,4.28
2022-08-11T17:26:21.410Z,3.97
2022-08-11T17:28:56.348Z,4.05
2022-08-11T17:31:42.330Z,4.30
2022-08-11T17:34:27.971Z,4.70
2022-08-11T17:36:56.271Z,3.88
2022-08-11T17:39:29.276Z,4.30
2022-08-11T17:42:16.638Z,3.55
2022-08-11T17:45:03.368Z,3.50
2022-08-11T17:47:49.053Z,7.35
2022-08-11T17:50:18.415Z,4.70
2022-08-11T17:53:04.351Z,3.42
2022-08-11T17:55:53.593Z,5.78
2022-08-11T17:58:39.427Z,3.65
2022-08-11T18:01:10.023Z,4.65
2022-08-11T18:03:40.027Z,3.70
2022-08-11T18:06:12.602Z,3.65
2022-08-11T18:09:02.491Z,3.25
2022-08-11T18:12:06.209Z,3.92
2022-08-11T18:14:55.133Z,4.13
2022-08-11T18:17:42.225Z,4.35
2022-08-11T18:20:28.514Z,4.60
2022-08-11T18:23:14.382Z,4.80
2022-08-11T18:26:02.818Z,4.18
2022-08-11T18:28:52.141Z,4.00
2022-08-11T18:31:37.624Z,3.97
2022-08-11T18:34:25.709Z,4.05
2022-08-11T18:37:20.188Z,4.85
2022-08-11T18:40:09.491Z,5.00
2022-08-11T18:43:03.158Z,6.07
2022-08-11T18:46:00.476Z,5.70
2022-08-11T18:48:54.010Z,6.43
2022-08-11T18:51:42.904Z,6.10
2022-08-11T18:54:29.319Z,7.15
2022-08-11T18:57:16.147Z,7.85
2022-08-11T19:00:02.276Z,6.55
2022-08-11T19:02:48.994Z,5.55
2022-08-11T19:06:08.327Z,8.10
2022-08-11T19:08:46.047Z,6.22
2022-08-11T19:11:31.793Z,5.15
2022-08-11T19:14:17.733Z,7.60
2022-08-11T19:17:03.546Z,7.15
2022-08-11T19:19:48.919Z,7.72
2022-08-11T19:22:34.419Z,4.78
2022-08-11T19:25:25.389Z,7.60
2022-08-11T19:28:12.034Z,8.43
2022-08-11T19:30:57.405Z,6.93
2022-08-11T19:34:02.469Z,7.03
2022-08-11T19:36:48.482Z,6.20
2022-08-11T19:39:34.040Z,6.18
2022-08-11T19:42:21.153Z,6.07
2022-08-11T19:45:06.658Z,5.13
2022-08-11T19:48:07.991Z,3.95
2022-08-11T19:50:57.794Z,4.40
2022-08-11T19:53:43.162Z,4.90
2022-08-11T19:56:28.754Z,5.72
2022-08-11T19:59:16.093Z,3.72
2022-08-11T20:02:14.318Z,4.75
2022-08-11T20:05:00.278Z,6.35
2022-08-11T20:07:46.205Z,4.40
2022-08-11T20:10:32.039Z,4.35
2022-08-11T20:13:21.617Z,5.68
2022-08-11T20:16:08.673Z,7.03
2022-08-11T20:18:54.086Z,4.57
2022-08-11T20:21:39.960Z,4.28
2022-08-11T20:24:25.869Z,3.55
2022-08-11T20:27:24.404Z,5.05
2022-08-11T20:30:10.961Z,4.82
2022-08-11T20:32:58.598Z,4.90
2022-08-11T20:35:44.027Z,4.15
2022-08-11T20:38:30.243Z,5.18
2022-08-11T20:41:16.460Z,5.88
2022-08-11T20:44:05.631Z,5.93
2022-08-11T20:46:52.531Z,5.05
2022-08-11T20:49:45.926Z,5.32
2022-08-11T20:52:39.923Z,6.15
2022-08-11T20:55:51.518Z,4.97
2022-08-11T20:59:01.025Z,5.82
2022-08-11T21:01:38.641Z,3.40
2022-08-11T21:04:26.518Z,3.70
2022-08-11T21:07:18.591Z,4.15
2022-08-11T21:10:22.877Z,3.50
2022-08-11T21:13:26.480Z,4.90
2022-08-11T21:16:26.082Z,3.67
2022-08-11T21:19:13.945Z,6.03
2022-08-11T21:21:59.491Z,5.68
2022-08-11T21:24:47.024Z,7.32
2022-08-11T21:27:35.363Z,4.63
2022-08-11T21:30:21.121Z,4.50
2022-08-11T21:33:06.559Z,3.85
2022-08-11T21:35:52.085Z,5.78
2022-08-11T21:38:37.527Z,4.57
2022-08-11T21:41:24.386Z,4.15
2022-08-11T21:44:10.469Z,4.15
2022-08-11T21:46:56.445Z,4.68
2022-08-11T21:49:41.767Z,3.58
2022-08-11T21:52:27.374Z,3.83
2022-08-11T21:55:12.841Z,4.38
2022-08-11T21:58:00.084Z,3.72
2022-08-11T22:00:45.647Z,5.88
2022-08-11T22:03:36.516Z,5.03
2022-08-11T22:06:35.427Z,4.10
2022-08-11T22:09:20.784Z,3.67
2022-08-11T22:12:34.110Z,4.53
2022-08-11T22:15:13.126Z,5.35
2022-08-11T22:17:58.518Z,3.90
2022-08-11T22:20:43.933Z,5.07
2022-08-11T22:23:35.257Z,6.32
2022-08-11T22:26:22.653Z,5.50
2022-08-11T22:29:08.418Z,4.43
2022-08-11T22:31:55.918Z,4.00
2022-08-11T22:34:53.076Z,6.05
2022-08-11T22:37:39.766Z,4.63
2022-08-11T22:40:27.280Z,4.70
2022-08-11T22:43:12.652Z,6.32
2022-08-11T22:45:57.996Z,4.88
2022-08-11T22:48:45.222Z,5.43
2022-08-11T22:51:30.698Z,4.75
2022-08-11T22:54:16.009Z,5.13
2022-08-11T22:57:01.398Z,5.05
2022-08-11T22:59:46.558Z,5.07
2022-08-11T23:02:32.085Z,4.45
2022-08-11T23:05:18.955Z,5.32
2022-08-11T23:08:04.302Z,5.60
2022-08-11T23:10:50.175Z,4.88
2022-08-11T23:13:35.713Z,4.88
2022-08-11T23:16:21.694Z,4.18
2022-08-11T23:19:07.581Z,5.05
2022-08-11T23:21:54.850Z,5.78
2022-08-11T23:24:40.717Z,4.32
2022-08-11T23:27:27.163Z,5.30
2022-08-11T23:30:13.470Z,4.75
2022-08-11T23:32:59.395Z,3.97
2022-08-11T23:35:54.954Z,4.05
2022-08-11T23:38:43.700Z,4.20
2022-08-11T23:41:29.071Z,3.92
2022-08-11T23:44:14.830Z,5.47
2022-08-11T23:47:00.801Z,5.20
2022-08-11T23:49:46.242Z,4.18
2022-08-11T23:52:31.610Z,5.30
2022-08-11T23:55:18.600Z,3.97
2022-08-11T23:58:03.923Z,4.28
